sensor_id;sensor_type;location;lat;lon;timestamp;temperature;humidity
28863;DHT22;15994;51.796;13.006;2022-10-16T00:02:18;14.50;99.90
28863;DHT22;15994;51.796;13.006;2022-10-16T00:04:45;14.50;99.90
28863;DHT22;15994;51.796;13.006;2022-10-16T00:07:11;14.60;99.90
28863;DHT22;15994;51.796;13.006;2022-10-16T00:09:38;14.60;99.90
28863;DHT22;15994;51.796;13.006;2022-10-16T00:12:04;14.50;99.90
28863;DHT22;15994;51.796;13.006;2022-10-16T00:14:32;14.60;99.90
28863;DHT22;15994;51.796;13.006;2022-10-16T00:16:59;14.50;99.90
28863;DHT22;15994;51.796;13.006;2022-10-16T00:19:25;14.60;99.90
28863;DHT22;15994;51.796;13.006;2022-10-16T00:21:52;14.50;99.90
28863;DHT22;15994;51.796;13.006;2022-10-16T00:24:18;14.50;99.90
28863;DHT22;15994;51.796;13.006;2022-10-16T00:26:45;14.60;99.90
28863;DHT22;15994;51.796;13.006;2022-10-16T00:29:15;14.50;99.90
28863;DHT22;15994;51.796;13.006;2022-10-16T00:31:42;14.50;99.90
28863;DHT22;15994;51.796;13.006;2022-10-16T00:34:08;14.50;99.90
28863;DHT22;15994;51.796;13.006;2022-10-16T00:36:35;14.50;99.90
28863;DHT22;15994;51.796;13.006;2022-10-16T00:39:02;14.40;99.90
28863;DHT22;15994;51.796;13.006;2022-10-16T00:41:30;14.40;99.90
28863;DHT22;15994;51.796;13.006;2022-10-16T00:43:58;14.40;99.90
28863;DHT22;15994;51.796;13.006;2022-10-16T00:46:37;14.30;99.90
28863;DHT22;15994;51.796;13.006;2022-10-16T00:51:40;14.30;99.90
28863;DHT22;15994;51.796;13.006;2022-10-16T00:54:09;14.30;99.90
28863;DHT22;15994;51.796;13.006;2022-10-16T00:56:36;14.30;99.90
28863;DHT22;15994;51.796;13.006;2022-10-16T00:59:06;14.30;99.90
28863;DHT22;15994;51.796;13.006;2022-10-16T01:01:33;14.30;99.90
28863;DHT22;15994;51.796;13.006;2022-10-16T01:04:00;14.20;99.90
28863;DHT22;15994;51.796;13.006;2022-10-16T01:06:46;14.30;99.90
28863;DHT22;15994;51.796;13.006;2022-10-16T01:09:23;14.30;99.90
28863;DHT22;15994;51.796;13.006;2022-10-16T01:12:09;14.30;99.90
28863;DHT22;15994;51.796;13.006;2022-10-16T01:14:44;14.40;99.90
28863;DHT22;15994;51.796;13.006;2022-10-16T01:17:19;14.50;99.90
28863;DHT22;15994;51.796;13.006;2022-10-16T01:22:59;14.70;99.90
28863;DHT22;15994;51.796;13.006;2022-10-16T01:25:55;14.80;99.90
28863;DHT22;15994;51.796;13.006;2022-10-16T01:28:34;14.90;99.90
28863;DHT22;15994;51.796;13.006;2022-10-16T01:31:03;14.90;99.90
28863;DHT22;15994;51.796;13.006;2022-10-16T01:33:39;14.80;99.90
28863;DHT22;15994;51.796;13.006;2022-10-16T01:36:25;14.80;99.90
28863;DHT22;15994;51.796;13.006;2022-10-16T01:38:54;14.80;99.90
28863;DHT22;15994;51.796;13.006;2022-10-16T01:41:32;14.80;99.90
28863;DHT22;15994;51.796;13.006;2022-10-16T01:44:26;14.80;99.90
28863;DHT22;15994;51.796;13.006;2022-10-16T01:46:55;14.80;99.90
28863;DHT22;15994;51.796;13.006;2022-10-16T01:49:23;14.70;99.90
28863;DHT22;15994;51.796;13.006;2022-10-16T01:51:55;14.70;99.90
28863;DHT22;15994;51.796;13.006;2022-10-16T01:54:26;14.70;99.90
28863;DHT22;15994;51.796;13.006;2022-10-16T01:56:54;14.70;99.90
28863;DHT22;15994;51.796;13.006;2022-10-16T01:59:25;14.70;99.90
28863;DHT22;15994;51.796;13.006;2022-10-16T02:01:58;14.70;99.90
28863;DHT22;15994;51.796;13.006;2022-10-16T02:04:46;14.60;99.90
28863;DHT22;15994;51.796;13.006;2022-10-16T02:07:14;14.50;99.90
28863;DHT22;15994;51.796;13.006;2022-10-16T02:09:41;14.40;99.90
28863;DHT22;15994;51.796;13.006;2022-10-16T02:12:19;14.40;99.90
28863;DHT22;15994;51.796;13.006;2022-10-16T02:14:47;14.40;99.90
28863;DHT22;15994;51.796;13.006;2022-10-16T02:17:16;14.30;99.90
28863;DHT22;15994;51.796;13.006;2022-10-16T02:19:45;14.30;99.90
28863;DHT22;15994;51.796;13.006;2022-10-16T02:22:21;14.30;99.90
28863;DHT22;15994;51.796;13.006;2022-10-16T02:25:22;14.40;99.90
28863;DHT22;15994;51.796;13.006;2022-10-16T02:28:22;14.40;99.90
28863;DHT22;15994;51.796;13.006;2022-10-16T02:31:04;14.50;99.90
28863;DHT22;15994;51.796;13.006;2022-10-16T02:33:31;14.50;99.90
28863;DHT22;15994;51.796;13.006;2022-10-16T02:35:59;14.50;99.90
28863;DHT22;15994;51.796;13.006;2022-10-16T02:38:26;14.50;99.90
28863;DHT22;15994;51.796;13.006;2022-10-16T02:40:54;14.50;99.90
28863;DHT22;15994;51.796;13.006;2022-10-16T02:43:21;14.50;99.90
28863;DHT22;15994;51.796;13.006;2022-10-16T02:45:47;14.50;99.90
28863;DHT22;15994;51.796;13.006;2022-10-16T02:48:14;14.50;99.90
28863;DHT22;15994;51.796;13.006;2022-10-16T02:50:40;14.50;99.90
28863;DHT22;15994;51.796;13.006;2022-10-16T02:53:07;14.50;99.90
28863;DHT22;15994;51.796;13.006;2022-10-16T02:55:34;14.40;99.90
28863;DHT22;15994;51.796;13.006;2022-10-16T02:58:00;14.40;99.90
28863;DHT22;15994;51.796;13.006;2022-10-16T03:00:27;14.30;99.90
28863;DHT22;15994;51.796;13.006;2022-10-16T03:02:53;14.20;99.90
28863;DHT22;15994;51.796;13.006;2022-10-16T03:05:20;14.20;99.90
28863;DHT22;15994;51.796;13.006;2022-10-16T03:07:47;14.10;99.90
28863;DHT22;15994;51.796;13.006;2022-10-16T03:10:13;14.10;99.90
28863;DHT22;15994;51.796;13.006;2022-10-16T03:12:40;14.10;99.90
28863;DHT22;15994;51.796;13.006;2022-10-16T03:15:07;14.10;99.90
28863;DHT22;15994;51.796;13.006;2022-10-16T03:17:34;14.10;99.90
28863;DHT22;15994;51.796;13.006;2022-10-16T03:20:00;14.10;99.90
28863;DHT22;15994;51.796;13.006;2022-10-16T03:22:27;14.10;99.90
28863;DHT22;15994;51.796;13.006;2022-10-16T03:24:53;14.10;99.90
28863;DHT22;15994;51.796;13.006;2022-10-16T03:27:20;14.20;99.90
28863;DHT22;15994;51.796;13.006;2022-10-16T03:29:47;14.20;99.90
28863;DHT22;15994;51.796;13.006;2022-10-16T03:32:13;14.20;99.90
28863;DHT22;15994;51.796;13.006;2022-10-16T03:34:40;14.30;99.90
28863;DHT22;15994;51.796;13.006;2022-10-16T03:37:06;14.30;99.90
28863;DHT22;15994;51.796;13.006;2022-10-16T03:39:33;14.40;99.90
28863;DHT22;15994;51.796;13.006;2022-10-16T03:41:59;14.40;99.90
28863;DHT22;15994;51.796;13.006;2022-10-16T03:44:26;14.40;99.90
28863;DHT22;15994;51.796;13.006;2022-10-16T03:46:52;14.40;99.90
28863;DHT22;15994;51.796;13.006;2022-10-16T03:49:19;14.30;99.90
28863;DHT22;15994;51.796;13.006;2022-10-16T03:51:45;14.30;99.90
28863;DHT22;15994;51.796;13.006;2022-10-16T03:54:12;14.20;99.90
28863;DHT22;15994;51.796;13.006;2022-10-16T03:56:39;14.20;99.90
28863;DHT22;15994;51.796;13.006;2022-10-16T03:59:05;14.10;99.90
28863;DHT22;15994;51.796;13.006;2022-10-16T04:01:32;14.10;99.90
28863;DHT22;15994;51.796;13.006;2022-10-16T04:03:58;14.00;99.90
28863;DHT22;15994;51.796;13.006;2022-10-16T04:06:25;14.00;99.90
28863;DHT22;15994;51.796;13.006;2022-10-16T04:08:51;13.90;99.90
28863;DHT22;15994;51.796;13.006;2022-10-16T04:11:18;13.90;99.90
28863;DHT22;15994;51.796;13.006;2022-10-16T04:13:44;13.80;99.90
28863;DHT22;15994;51.796;13.006;2022-10-16T04:16:11;13.80;99.90
28863;DHT22;15994;51.796;13.006;2022-10-16T04:18:38;13.70;99.90
28863;DHT22;15994;51.796;13.006;2022-10-16T04:21:06;13.70;99.90
28863;DHT22;15994;51.796;13.006;2022-10-16T04:23:33;13.70;99.90
28863;DHT22;15994;51.796;13.006;2022-10-16T04:26:00;13.60;99.90
28863;DHT22;15994;51.796;13.006;2022-10-16T04:28:26;13.60;99.90
28863;DHT22;15994;51.796;13.006;2022-10-16T04:30:53;13.60;99.90
28863;DHT22;15994;51.796;13.006;2022-10-16T04:33:20;13.50;99.90
28863;DHT22;15994;51.796;13.006;2022-10-16T04:35:46;13.50;99.90
28863;DHT22;15994;51.796;13.006;2022-10-16T04:38:13;13.50;99.90
28863;DHT22;15994;51.796;13.006;2022-10-16T04:40:41;13.50;99.90
28863;DHT22;15994;51.796;13.006;2022-10-16T04:43:08;13.50;99.90
28863;DHT22;15994;51.796;13.006;2022-10-16T04:45:35;13.50;99.90
28863;DHT22;15994;51.796;13.006;2022-10-16T04:48:02;13.50;99.90
28863;DHT22;15994;51.796;13.006;2022-10-16T04:50:29;13.50;99.90
28863;DHT22;15994;51.796;13.006;2022-10-16T04:52:55;13.40;99.90
28863;DHT22;15994;51.796;13.006;2022-10-16T04:55:22;13.40;99.90
28863;DHT22;15994;51.796;13.006;2022-10-16T04:57:48;13.40;99.90
28863;DHT22;15994;51.796;13.006;2022-10-16T05:00:15;13.40;99.90
28863;DHT22;15994;51.796;13.006;2022-10-16T05:02:42;13.40;99.90
28863;DHT22;15994;51.796;13.006;2022-10-16T05:05:08;13.40;99.90
28863;DHT22;15994;51.796;13.006;2022-10-16T05:07:35;13.40;99.90
28863;DHT22;15994;51.796;13.006;2022-10-16T05:10:02;13.40;99.90
28863;DHT22;15994;51.796;13.006;2022-10-16T05:12:29;13.40;99.90
28863;DHT22;15994;51.796;13.006;2022-10-16T05:14:56;13.40;99.90
28863;DHT22;15994;51.796;13.006;2022-10-16T05:17:24;13.30;99.90
28863;DHT22;15994;51.796;13.006;2022-10-16T05:19:51;13.40;99.90
28863;DHT22;15994;51.796;13.006;2022-10-16T05:22:17;13.40;99.90
28863;DHT22;15994;51.796;13.006;2022-10-16T05:24:44;13.40;99.90
28863;DHT22;15994;51.796;13.006;2022-10-16T05:27:11;13.30;99.90
28863;DHT22;15994;51.796;13.006;2022-10-16T05:29:45;13.30;99.90
28863;DHT22;15994;51.796;13.006;2022-10-16T05:32:12;13.30;99.90
28863;DHT22;15994;51.796;13.006;2022-10-16T05:34:39;13.30;99.90
28863;DHT22;15994;51.796;13.006;2022-10-16T05:37:06;13.30;99.90
28863;DHT22;15994;51.796;13.006;2022-10-16T05:39:32;13.30;99.90
28863;DHT22;15994;51.796;13.006;2022-10-16T05:41:59;13.30;99.90
28863;DHT22;15994;51.796;13.006;2022-10-16T05:44:26;13.30;99.90
28863;DHT22;15994;51.796;13.006;2022-10-16T05:46:52;13.40;99.90
28863;DHT22;15994;51.796;13.006;2022-10-16T05:49:19;13.40;99.90
28863;DHT22;15994;51.796;13.006;2022-10-16T05:51:45;13.40;99.90
28863;DHT22;15994;51.796;13.006;2022-10-16T05:54:12;13.50;99.90
28863;DHT22;15994;51.796;13.006;2022-10-16T05:56:39;13.50;99.90
28863;DHT22;15994;51.796;13.006;2022-10-16T05:59:05;13.60;99.90
28863;DHT22;15994;51.796;13.006;2022-10-16T06:01:32;13.70;99.90
28863;DHT22;15994;51.796;13.006;2022-10-16T06:03:59;13.70;99.90
28863;DHT22;15994;51.796;13.006;2022-10-16T06:06:27;13.80;99.90
28863;DHT22;15994;51.796;13.006;2022-10-16T06:08:56;13.80;99.90
28863;DHT22;15994;51.796;13.006;2022-10-16T06:11:28;13.90;99.90
28863;DHT22;15994;51.796;13.006;2022-10-16T06:13:57;14.00;99.90
28863;DHT22;15994;51.796;13.006;2022-10-16T06:16:27;14.10;99.90
28863;DHT22;15994;51.796;13.006;2022-10-16T06:18:55;14.10;99.90
28863;DHT22;15994;51.796;13.006;2022-10-16T06:21:24;14.20;99.90
28863;DHT22;15994;51.796;13.006;2022-10-16T06:23:51;14.30;99.90
28863;DHT22;15994;51.796;13.006;2022-10-16T06:26:20;14.30;99.90
28863;DHT22;15994;51.796;13.006;2022-10-16T06:28:47;14.40;99.90
28863;DHT22;15994;51.796;13.006;2022-10-16T06:31:15;14.50;99.90
28863;DHT22;15994;51.796;13.006;2022-10-16T06:33:42;14.60;99.90
28863;DHT22;15994;51.796;13.006;2022-10-16T06:36:10;14.60;99.90
28863;DHT22;15994;51.796;13.006;2022-10-16T06:38:37;14.70;99.90
28863;DHT22;15994;51.796;13.006;2022-10-16T06:41:05;14.70;99.90
28863;DHT22;15994;51.796;13.006;2022-10-16T06:43:32;14.80;99.90
28863;DHT22;15994;51.796;13.006;2022-10-16T06:46:01;14.80;99.90
28863;DHT22;15994;51.796;13.006;2022-10-16T06:48:29;14.80;99.90
28863;DHT22;15994;51.796;13.006;2022-10-16T06:51:06;14.80;99.90
28863;DHT22;15994;51.796;13.006;2022-10-16T06:53:34;14.80;99.90
28863;DHT22;15994;51.796;13.006;2022-10-16T06:56:15;14.80;99.90
28863;DHT22;15994;51.796;13.006;2022-10-16T06:58:43;14.90;99.90
28863;DHT22;15994;51.796;13.006;2022-10-16T07:01:10;14.80;99.90
28863;DHT22;15994;51.796;13.006;2022-10-16T07:03:39;14.80;99.90
28863;DHT22;15994;51.796;13.006;2022-10-16T07:06:08;14.80;99.90
28863;DHT22;15994;51.796;13.006;2022-10-16T07:08:37;14.90;99.90
28863;DHT22;15994;51.796;13.006;2022-10-16T07:11:08;14.90;99.90
28863;DHT22;15994;51.796;13.006;2022-10-16T07:13:36;15.00;99.90
28863;DHT22;15994;51.796;13.006;2022-10-16T07:16:15;15.00;99.90
28863;DHT22;15994;51.796;13.006;2022-10-16T07:18:44;15.10;99.90
28863;DHT22;15994;51.796;13.006;2022-10-16T07:21:17;15.20;99.90
28863;DHT22;15994;51.796;13.006;2022-10-16T07:23:44;15.40;99.90
28863;DHT22;15994;51.796;13.006;2022-10-16T07:26:11;15.50;99.90
28863;DHT22;15994;51.796;13.006;2022-10-16T07:28:38;15.50;99.90
28863;DHT22;15994;51.796;13.006;2022-10-16T07:31:08;15.60;99.90
28863;DHT22;15994;51.796;13.006;2022-10-16T07:33:36;15.70;99.90
28863;DHT22;15994;51.796;13.006;2022-10-16T07:36:04;15.70;99.90
28863;DHT22;15994;51.796;13.006;2022-10-16T07:38:30;15.80;99.90
28863;DHT22;15994;51.796;13.006;2022-10-16T07:41:02;15.80;99.90
28863;DHT22;15994;51.796;13.006;2022-10-16T07:43:29;15.90;99.90
28863;DHT22;15994;51.796;13.006;2022-10-16T07:45:56;15.90;99.90
28863;DHT22;15994;51.796;13.006;2022-10-16T07:48:23;16.00;99.90
28863;DHT22;15994;51.796;13.006;2022-10-16T07:50:50;16.00;99.90
28863;DHT22;15994;51.796;13.006;2022-10-16T07:53:17;16.00;99.90
28863;DHT22;15994;51.796;13.006;2022-10-16T07:55:43;16.00;99.90
28863;DHT22;15994;51.796;13.006;2022-10-16T07:58:10;16.10;99.90
28863;DHT22;15994;51.796;13.006;2022-10-16T08:00:37;16.10;99.90
28863;DHT22;15994;51.796;13.006;2022-10-16T08:03:04;16.20;99.90
28863;DHT22;15994;51.796;13.006;2022-10-16T08:05:32;16.20;99.90
28863;DHT22;15994;51.796;13.006;2022-10-16T08:07:59;16.20;99.90
28863;DHT22;15994;51.796;13.006;2022-10-16T08:10:27;16.20;99.90
28863;DHT22;15994;51.796;13.006;2022-10-16T08:12:54;16.30;99.90
28863;DHT22;15994;51.796;13.006;2022-10-16T08:15:21;16.30;99.90
28863;DHT22;15994;51.796;13.006;2022-10-16T08:17:55;16.50;99.90
28863;DHT22;15994;51.796;13.006;2022-10-16T08:20:22;16.50;99.90
28863;DHT22;15994;51.796;13.006;2022-10-16T08:22:48;16.70;99.90
28863;DHT22;15994;51.796;13.006;2022-10-16T08:25:15;16.80;99.90
28863;DHT22;15994;51.796;13.006;2022-10-16T08:27:42;16.90;99.90
28863;DHT22;15994;51.796;13.006;2022-10-16T08:30:10;17.00;99.90
28863;DHT22;15994;51.796;13.006;2022-10-16T08:32:37;17.10;99.90
28863;DHT22;15994;51.796;13.006;2022-10-16T08:35:04;17.30;99.90
28863;DHT22;15994;51.796;13.006;2022-10-16T08:37:32;17.40;99.90
28863;DHT22;15994;51.796;13.006;2022-10-16T08:39:58;17.40;99.90
28863;DHT22;15994;51.796;13.006;2022-10-16T08:42:47;17.40;99.90
28863;DHT22;15994;51.796;13.006;2022-10-16T08:45:27;17.40;99.90
28863;DHT22;15994;51.796;13.006;2022-10-16T08:51:04;17.50;99.90
28863;DHT22;15994;51.796;13.006;2022-10-16T08:53:39;17.60;99.90
28863;DHT22;15994;51.796;13.006;2022-10-16T08:56:08;17.60;99.90
28863;DHT22;15994;51.796;13.006;2022-10-16T08:58:34;17.70;99.90
28863;DHT22;15994;51.796;13.006;2022-10-16T09:01:04;17.80;99.90
28863;DHT22;15994;51.796;13.006;2022-10-16T09:03:54;17.90;99.90
28863;DHT22;15994;51.796;13.006;2022-10-16T09:06:38;18.00;99.90
28863;DHT22;15994;51.796;13.006;2022-10-16T09:10:31;18.00;99.90
28863;DHT22;15994;51.796;13.006;2022-10-16T09:12:40;17.90;99.90
28863;DHT22;15994;51.796;13.006;2022-10-16T09:18:14;17.90;99.90
28863;DHT22;15994;51.796;13.006;2022-10-16T09:23:18;18.00;99.90
28863;DHT22;15994;51.796;13.006;2022-10-16T09:25:47;18.20;99.90
28863;DHT22;15994;51.796;13.006;2022-10-16T09:28:16;18.30;99.90
28863;DHT22;15994;51.796;13.006;2022-10-16T09:30:44;18.50;99.90
28863;DHT22;15994;51.796;13.006;2022-10-16T09:33:12;18.60;99.90
28863;DHT22;15994;51.796;13.006;2022-10-16T09:35:48;18.70;99.90
28863;DHT22;15994;51.796;13.006;2022-10-16T09:38:30;18.80;99.90
28863;DHT22;15994;51.796;13.006;2022-10-16T09:41:13;18.70;99.90
28863;DHT22;15994;51.796;13.006;2022-10-16T09:43:46;18.70;99.90
28863;DHT22;15994;51.796;13.006;2022-10-16T09:46:25;18.60;99.90
28863;DHT22;15994;51.796;13.006;2022-10-16T09:48:54;18.70;99.90
28863;DHT22;15994;51.796;13.006;2022-10-16T09:51:28;18.70;99.90
28863;DHT22;15994;51.796;13.006;2022-10-16T09:54:16;18.80;99.90
28863;DHT22;15994;51.796;13.006;2022-10-16T09:56:43;18.90;99.90
28863;DHT22;15994;51.796;13.006;2022-10-16T09:59:14;19.10;99.90
28863;DHT22;15994;51.796;13.006;2022-10-16T10:01:43;19.40;99.90
28863;DHT22;15994;51.796;13.006;2022-10-16T10:04:11;19.70;99.90
28863;DHT22;15994;51.796;13.006;2022-10-16T10:06:45;19.90;99.90
28863;DHT22;15994;51.796;13.006;2022-10-16T10:09:26;19.90;99.90
28863;DHT22;15994;51.796;13.006;2022-10-16T10:11:59;20.10;99.90
28863;DHT22;15994;51.796;13.006;2022-10-16T10:14:34;20.10;99.90
28863;DHT22;15994;51.796;13.006;2022-10-16T10:17:21;20.20;99.90
28863;DHT22;15994;51.796;13.006;2022-10-16T10:19:57;20.30;99.90
28863;DHT22;15994;51.796;13.006;2022-10-16T10:22:39;20.30;99.90
28863;DHT22;15994;51.796;13.006;2022-10-16T10:31:06;20.10;99.90
28863;DHT22;15994;51.796;13.006;2022-10-16T10:36:49;20.10;99.90
28863;DHT22;15994;51.796;13.006;2022-10-16T10:50:52;20.40;99.90
28863;DHT22;15994;51.796;13.006;2022-10-16T10:53:37;20.50;99.90
28863;DHT22;15994;51.796;13.006;2022-10-16T11:01:48;20.50;99.90
28863;DHT22;15994;51.796;13.006;2022-10-16T11:07:05;20.60;99.90
28863;DHT22;15994;51.796;13.006;2022-10-16T11:09:37;20.50;99.90
28863;DHT22;15994;51.796;13.006;2022-10-16T11:12:14;20.50;99.90
28863;DHT22;15994;51.796;13.006;2022-10-16T11:15:07;20.50;99.90
28863;DHT22;15994;51.796;13.006;2022-10-16T11:17:51;20.30;99.90
28863;DHT22;15994;51.796;13.006;2022-10-16T11:20:32;20.20;99.90
28863;DHT22;15994;51.796;13.006;2022-10-16T11:25:45;20.20;99.90
28863;DHT22;15994;51.796;13.006;2022-10-16T11:34:25;20.40;99.90
28863;DHT22;15994;51.796;13.006;2022-10-16T11:37:17;20.50;99.90
28863;DHT22;15994;51.796;13.006;2022-10-16T11:39:45;20.40;99.90
28863;DHT22;15994;51.796;13.006;2022-10-16T11:42:27;20.40;99.90
28863;DHT22;15994;51.796;13.006;2022-10-16T11:45:15;20.30;99.90
28863;DHT22;15994;51.796;13.006;2022-10-16T11:51:09;20.30;99.90
28863;DHT22;15994;51.796;13.006;2022-10-16T11:53:59;20.10;99.90
28863;DHT22;15994;51.796;13.006;2022-10-16T11:56:30;20.10;99.90
28863;DHT22;15994;51.796;13.006;2022-10-16T11:59:17;20.00;99.90
28863;DHT22;15994;51.796;13.006;2022-10-16T12:01:53;19.90;99.90
28863;DHT22;15994;51.796;13.006;2022-10-16T12:04:34;19.80;99.90
28863;DHT22;15994;51.796;13.006;2022-10-16T12:07:14;19.80;99.90
28863;DHT22;15994;51.796;13.006;2022-10-16T12:09:42;19.80;99.90
28863;DHT22;15994;51.796;13.006;2022-10-16T12:12:38;19.80;99.90
28863;DHT22;15994;51.796;13.006;2022-10-16T12:15:27;19.90;99.90
28863;DHT22;15994;51.796;13.006;2022-10-16T12:17:55;19.80;99.90
28863;DHT22;15994;51.796;13.006;2022-10-16T12:22:57;19.60;99.90
28863;DHT22;15994;51.796;13.006;2022-10-16T12:25:30;19.60;99.90
28863;DHT22;15994;51.796;13.006;2022-10-16T12:30:29;19.60;99.90
28863;DHT22;15994;51.796;13.006;2022-10-16T12:33:51;19.70;99.90
28863;DHT22;15994;51.796;13.006;2022-10-16T12:35:51;19.70;99.90
28863;DHT22;15994;51.796;13.006;2022-10-16T12:38:21;19.80;99.90
28863;DHT22;15994;51.796;13.006;2022-10-16T12:41:00;19.80;99.90
28863;DHT22;15994;51.796;13.006;2022-10-16T12:43:41;19.80;99.90
28863;DHT22;15994;51.796;13.006;2022-10-16T12:48:37;19.80;99.90
28863;DHT22;15994;51.796;13.006;2022-10-16T12:54:13;19.90;99.90
28863;DHT22;15994;51.796;13.006;2022-10-16T13:00:00;20.10;99.90
28863;DHT22;15994;51.796;13.006;2022-10-16T13:08:22;20.40;99.90
28863;DHT22;15994;51.796;13.006;2022-10-16T13:11:12;20.40;99.90
28863;DHT22;15994;51.796;13.006;2022-10-16T13:14:29;20.30;99.90
28863;DHT22;15994;51.796;13.006;2022-10-16T13:16:54;20.40;99.90
28863;DHT22;15994;51.796;13.006;2022-10-16T13:25:18;20.60;99.90
28863;DHT22;15994;51.796;13.006;2022-10-16T13:27:56;20.60;99.90
28863;DHT22;15994;51.796;13.006;2022-10-16T13:30:29;20.40;99.90
28863;DHT22;15994;51.796;13.006;2022-10-16T13:33:06;20.30;99.90
28863;DHT22;15994;51.796;13.006;2022-10-16T13:35:35;20.20;99.90
28863;DHT22;15994;51.796;13.006;2022-10-16T13:38:13;20.10;99.90
28863;DHT22;15994;51.796;13.006;2022-10-16T13:40:52;20.10;99.90
28863;DHT22;15994;51.796;13.006;2022-10-16T13:43:22;20.10;99.90
28863;DHT22;15994;51.796;13.006;2022-10-16T13:45:57;20.10;99.90
28863;DHT22;15994;51.796;13.006;2022-10-16T13:48:24;20.10;99.90
28863;DHT22;15994;51.796;13.006;2022-10-16T13:53:26;20.30;99.90
28863;DHT22;15994;51.796;13.006;2022-10-16T13:55:53;20.40;99.90
28863;DHT22;15994;51.796;13.006;2022-10-16T13:58:20;20.40;99.90
28863;DHT22;15994;51.796;13.006;2022-10-16T14:00:58;20.40;99.90
28863;DHT22;15994;51.796;13.006;2022-10-16T14:03:26;20.40;99.90
28863;DHT22;15994;51.796;13.006;2022-10-16T14:05:56;20.50;99.90
28863;DHT22;15994;51.796;13.006;2022-10-16T14:08:25;20.50;99.90
28863;DHT22;15994;51.796;13.006;2022-10-16T14:10:56;20.40;99.90
28863;DHT22;15994;51.796;13.006;2022-10-16T14:13:39;20.40;99.90
28863;DHT22;15994;51.796;13.006;2022-10-16T14:16:19;20.30;99.90
28863;DHT22;15994;51.796;13.006;2022-10-16T14:18:55;20.20;99.90
28863;DHT22;15994;51.796;13.006;2022-10-16T14:21:23;20.10;99.90
28863;DHT22;15994;51.796;13.006;2022-10-16T14:23:50;20.00;99.90
28863;DHT22;15994;51.796;13.006;2022-10-16T14:26:20;19.90;99.90
28863;DHT22;15994;51.796;13.006;2022-10-16T14:28:48;19.80;99.90
28863;DHT22;15994;51.796;13.006;2022-10-16T14:31:24;19.70;99.90
28863;DHT22;15994;51.796;13.006;2022-10-16T14:33:51;19.60;99.90
28863;DHT22;15994;51.796;13.006;2022-10-16T14:36:18;19.50;99.90
28863;DHT22;15994;51.796;13.006;2022-10-16T14:39:02;19.50;99.90
28863;DHT22;15994;51.796;13.006;2022-10-16T14:41:35;19.50;99.90
28863;DHT22;15994;51.796;13.006;2022-10-16T14:44:10;19.50;99.90
28863;DHT22;15994;51.796;13.006;2022-10-16T14:46:40;19.50;99.90
28863;DHT22;15994;51.796;13.006;2022-10-16T14:51:38;19.40;99.90
28863;DHT22;15994;51.796;13.006;2022-10-16T14:54:08;19.40;99.90
28863;DHT22;15994;51.796;13.006;2022-10-16T14:56:54;19.40;99.90
28863;DHT22;15994;51.796;13.006;2022-10-16T14:59:33;19.30;99.90
28863;DHT22;15994;51.796;13.006;2022-10-16T15:04:47;19.20;99.90
28863;DHT22;15994;51.796;13.006;2022-10-16T15:07:14;19.20;99.90
28863;DHT22;15994;51.796;13.006;2022-10-16T15:09:41;19.30;99.90
28863;DHT22;15994;51.796;13.006;2022-10-16T15:12:08;19.30;99.90
28863;DHT22;15994;51.796;13.006;2022-10-16T15:14:34;19.40;99.90
28863;DHT22;15994;51.796;13.006;2022-10-16T15:17:01;19.40;99.90
28863;DHT22;15994;51.796;13.006;2022-10-16T15:19:28;19.40;99.90
28863;DHT22;15994;51.796;13.006;2022-10-16T15:21:55;19.40;99.90
28863;DHT22;15994;51.796;13.006;2022-10-16T15:24:21;19.50;99.90
28863;DHT22;15994;51.796;13.006;2022-10-16T15:26:48;19.50;99.90
28863;DHT22;15994;51.796;13.006;2022-10-16T15:29:15;19.50;99.90
28863;DHT22;15994;51.796;13.006;2022-10-16T15:31:42;19.50;99.90
28863;DHT22;15994;51.796;13.006;2022-10-16T15:34:09;19.40;99.90
28863;DHT22;15994;51.796;13.006;2022-10-16T15:36:37;19.30;99.90
28863;DHT22;15994;51.796;13.006;2022-10-16T15:39:06;19.30;99.90
28863;DHT22;15994;51.796;13.006;2022-10-16T15:41:38;19.30;99.90
28863;DHT22;15994;51.796;13.006;2022-10-16T15:44:04;19.20;99.90
28863;DHT22;15994;51.796;13.006;2022-10-16T15:46:31;19.20;99.90
28863;DHT22;15994;51.796;13.006;2022-10-16T15:48:59;19.20;99.90
28863;DHT22;15994;51.796;13.006;2022-10-16T15:51:27;19.20;99.90
28863;DHT22;15994;51.796;13.006;2022-10-16T15:53:56;19.10;99.90
28863;DHT22;15994;51.796;13.006;2022-10-16T15:56:23;19.10;99.90
28863;DHT22;15994;51.796;13.006;2022-10-16T15:58:51;19.00;99.90
28863;DHT22;15994;51.796;13.006;2022-10-16T16:01:18;19.00;99.90
28863;DHT22;15994;51.796;13.006;2022-10-16T16:03:45;18.90;99.90
28863;DHT22;15994;51.796;13.006;2022-10-16T16:06:13;18.80;99.90
28863;DHT22;15994;51.796;13.006;2022-10-16T16:08:40;18.70;99.90
28863;DHT22;15994;51.796;13.006;2022-10-16T16:11:11;18.60;99.90
28863;DHT22;15994;51.796;13.006;2022-10-16T16:13:38;18.50;99.90
28863;DHT22;15994;51.796;13.006;2022-10-16T16:16:14;18.40;99.90
28863;DHT22;15994;51.796;13.006;2022-10-16T16:18:41;18.40;99.90
28863;DHT22;15994;51.796;13.006;2022-10-16T16:21:10;18.30;99.90
28863;DHT22;15994;51.796;13.006;2022-10-16T16:23:37;18.20;99.90
28863;DHT22;15994;51.796;13.006;2022-10-16T16:26:13;18.10;99.90
28863;DHT22;15994;51.796;13.006;2022-10-16T16:28:41;18.00;99.90
28863;DHT22;15994;51.796;13.006;2022-10-16T16:31:08;17.90;99.90
28863;DHT22;15994;51.796;13.006;2022-10-16T16:33:35;17.80;99.90
28863;DHT22;15994;51.796;13.006;2022-10-16T16:36:04;17.60;99.90
28863;DHT22;15994;51.796;13.006;2022-10-16T16:38:31;17.50;99.90
28863;DHT22;15994;51.796;13.006;2022-10-16T16:40:58;17.50;99.90
28863;DHT22;15994;51.796;13.006;2022-10-16T16:43:26;17.40;99.90
28863;DHT22;15994;51.796;13.006;2022-10-16T16:45:53;17.30;99.90
28863;DHT22;15994;51.796;13.006;2022-10-16T16:48:21;17.10;99.90
28863;DHT22;15994;51.796;13.006;2022-10-16T16:50:47;17.00;99.90
28863;DHT22;15994;51.796;13.006;2022-10-16T16:53:14;16.90;99.90
28863;DHT22;15994;51.796;13.006;2022-10-16T16:55:41;16.80;99.90
28863;DHT22;15994;51.796;13.006;2022-10-16T16:58:07;16.80;99.90
28863;DHT22;15994;51.796;13.006;2022-10-16T17:00:34;16.70;99.90
28863;DHT22;15994;51.796;13.006;2022-10-16T17:03:00;16.60;99.90
28863;DHT22;15994;51.796;13.006;2022-10-16T17:05:27;16.50;99.90
28863;DHT22;15994;51.796;13.006;2022-10-16T17:07:54;16.50;99.90